Latest Coastal Weather Observations for Port Fairy

IDV60701

Issued at 5:21 am EST Tuesday 4 August 2015 (issued every 10 minutes, with the page automatically refreshed every 10 minutes)

About coastal observations | Map of coastal stations | Coastal observations for VIC | Marine services | Other Formats
Station Details ID: 090175 Name: PORT FAIRY AWS Lat: -38.39 Lon: 142.23 Height: 10.0 m
Data from the previous 72 hours. | See also: Recent months at Port Fairy
Date/Time
EST
Temp

°C
Wind Pressure Rain
since 9am
mm
Weather Cloud Vis
km
Sea
Height
m
Swell
Dir
 
Speed
knots
Gust
knots
hPa Trend Height
m
Period
s
Dir
04/05:00am 3.2 NNW 7 10 1022.8 - 2.2 - - - - - - -
04/04:30am 3.3 NNW 7 10 1022.8 - 2.2 - - - - - - -
04/04:00am 3.9 NNW 8 13 1023.1 - 1.8 - - - - - - -
04/03:30am 3.5 NNW 6 9 1023.0 - 1.2 - - - - - - -
04/03:00am 3.8 NNW 6 10 1023.4 - 1.2 Recent precip. - - - - - -
04/02:30am 4.4 NNW 6 9 1023.5 - 1.2 - - - - - - -
04/02:00am 4.9 NNW 5 8 1023.7 - 0.6 - - - - - - -
04/01:30am 5.1 NW 6 10 1023.5 - 0.0 - - - - - - -
04/01:00am 5.2 NNW 6 10 1023.7 - 0.0 - - - - - - -
04/12:30am 5.2 NNW 5 8 1024.0 - 0.0 - - - - - - -
04/12:00am 5.6 NNW 5 8 1024.1 - 0.0 - - - - - - -
 
Date/Time
EST
Temp

°C
Wind Pressure Rain
since 9am
mm
Weather Cloud Vis
km
Sea
Height
m
Swell
Dir
 
Speed
knots
Gust
knots
hPa Trend Height
m
Period
s
Dir
03/11:30pm 5.7 NW 6 9 1024.0 - 0.0 - - - - - - -
03/11:00pm 6.2 NW 6 8 1024.0 - 0.0 - - - - - - -
03/10:30pm 6.6 NW 6 10 1024.1 - 0.0 - - - - - - -
03/10:00pm 6.7 NW 5 8 1024.3 - 0.0 - - - - - - -
03/09:30pm 8.3 SW 8 13 1024.3 - 0.0 - - - - - - -
03/09:00pm 9.0 SW 9 13 1024.3 - 0.0 - - - - - - -
03/08:30pm 9.0 SW 11 17 1024.3 - 0.0 - - - - - - -
03/08:00pm 8.7 SW 10 15 1024.3 - 0.0 - - - - - - -
03/07:30pm 8.4 WSW 11 16 1024.2 - 0.0 - - - - - - -
03/07:00pm 8.4 WSW 15 20 1024.0 - 0.0 - - - - - - -
03/06:30pm 8.0 SSW 13 20 1023.5 - 0.0 - - - - - - -
03/06:00pm 8.5 SSW 13 20 1023.1 - 0.0 - - - - - - -
03/05:30pm 9.1 SW 13 17 1022.8 - 0.0 - - - - - - -
03/05:00pm 8.8 SW 11 16 1022.7 - 0.0 - - - - - - -
03/04:30pm 7.9 WSW 16 23 1022.8 - 0.0 - - - - - - -
03/04:00pm 9.1 SSW 14 19 1022.3 - 0.0 - - - - - - -
03/03:30pm 10.1 SW 15 19 1022.1 - 0.0 - - - - - - -
03/03:00pm 10.0 SW 15 22 1021.7 - 0.0 - - - - - - -
03/02:30pm 10.6 SW 14 22 1021.3 - 0.0 - - - - - - -
03/02:00pm 9.4 SW 17 24 1021.3 - 0.0 - - - - - - -
03/01:30pm 8.9 SW 13 17 1021.1 - 0.0 - - - - - - -
03/01:00pm 9.0 SW 19 30 1021.2 - 0.0 - - - - - - -
03/12:56pm 9.8 SW 17 30 1021.1 - 0.0 - - - - - - -
03/12:30pm 9.8 SW 18 25 1021.1 - 0.0 - - - - - - -
03/12:00pm 9.5 SW 20 29 1021.1 - 0.0 - - - - - - -
03/11:32am 9.6 SSW 16 27 1021.1 - 0.0 - - - - - - -
03/11:30am 9.3 SW 18 27 1021.1 - 0.0 - - - - - - -
03/11:00am 9.4 SW 23 29 1020.7 - 0.0 - - - - - - -
03/10:30am 9.1 SW 20 25 1020.2 - 0.0 - - - - - - -
03/10:00am 9.4 SW 21 28 1019.6 - 0.0 - - - - - - -
03/09:30am 8.8 SSW 20 28 1019.1 - 0.0 - - - - - - -
03/09:00am 9.4 SW 23 33 1018.7 - 8.6 - - - - - - -
03/08:44am 9.3 SW 26 36 1018.5 - 8.6 - - - - - - -
03/08:30am 9.2 SW 25 35 1018.1 - 8.6 - - - - - - -
03/08:08am 9.2 SW 24 34 1017.6 - 8.6 - - - - - - -
03/08:00am 8.9 SW 24 33 1017.5 - 8.6 - - - - - - -
03/07:30am 8.8 SW 24 31 1016.9 - 8.6 - - - - - - -
03/07:25am 8.8 SW 24 35 1016.8 - 8.6 - - - - - - -
03/07:00am 8.7 SW 25 35 1016.2 - 8.6 - - - - - - -
03/06:30am 8.5 SW 23 35 1015.4 - 8.6 - - - - - - -
03/06:04am 8.0 WSW 25 38 1015.2 - 8.6 - - - - - - -
03/06:00am 7.9 WSW 25 35 1014.8 - 8.6 Recent precip. - - - - - -
03/05:38am 8.2 WSW 25 39 1014.9 - 8.6 - - - - - - -
03/05:30am 8.6 WSW 25 34 1014.5 - 8.4 - - - - - - -
03/05:00am 7.5 SW 24 35 1014.2 - 8.4 - - - - - - -
03/04:30am 8.2 WSW 27 39 1013.3 - 7.8 - - - - - - -
03/04:00am 8.8 WSW 27 40 1012.9 - 7.4 - - - - - - -
03/03:30am 8.2 W 22 33 1012.7 - 7.0 - - - - - - -
03/03:06am 9.7 WSW 25 35 1012.4 - 6.8 - - - - - - -
03/03:00am 9.4 WSW 27 35 1012.3 - 6.8 Recent precip. - - - - - -
03/02:35am 9.6 WSW 24 34 1012.3 - 6.6 - - - - - - -
03/02:30am 9.8 WSW 24 33 1012.3 - 6.6 - - - - - - -
03/02:02am 9.8 WSW 31 43 1012.2 - 6.4 - - - - - - -
03/02:00am 10.0 WSW 31 40 1012.0 - 6.4 - - - - - - -
03/01:48am 10.1 WSW 29 40 1012.0 - 6.4 - - - - - - -
03/01:30am 9.4 W 23 33 1011.8 - 6.4 - - - - - - -
03/01:00am 10.4 W 29 39 1011.4 - 6.2 - - - - - - -
03/12:39am 9.3 W 25 37 1011.3 - 6.2 - - - - - - -
03/12:30am 9.7 W 27 36 1011.4 - 6.2 - - - - - - -
03/12:02am 9.8 W 23 33 1011.4 - 6.0 - - - - - - -
03/12:00am 9.8 W 25 34 1011.3 - 6.0 - - - - - - -
 
Date/Time
EST
Temp

°C
Wind Pressure Rain
since 9am
mm
Weather Cloud Vis
km
Sea
Height
m
Swell
Dir
 
Speed
knots
Gust
knots
hPa Trend Height
m
Period
s
Dir
02/11:44pm 10.1 W 24 47 1011.4 - 6.0 - - - - - - -
02/11:31pm 10.1 W 22 33 1011.0 - 6.0 - - - - - - -
02/11:30pm 10.1 W 22 31 1011.0 - 6.0 - - - - - - -
02/11:00pm 9.0 WNW 24 37 1011.1 - 6.0 - - - - - - -
02/10:44pm 8.7 WNW 12 34 1011.2 - 6.0 - - - - - - -
02/10:35pm 8.7 WNW 15 27 1011.3 - 6.0 - - - - - - -
02/10:30pm 9.0 W 20 35 1011.2 - 6.0 - - - - - - -
02/10:00pm 9.1 WNW 18 28 1011.3 - 5.6 - - - - - - -
02/09:35pm 8.0 NW 15 27 1011.5 - 5.6 - - - - - - -
02/09:30pm 8.0 NW 13 24 1011.5 - 5.4 - - - - - - -
02/09:00pm 8.1 NW 10 15 1011.1 - 3.8 Recent precip. - - - - - -
02/08:30pm 8.3 NW 9 15 1011.3 - 3.6 - - - - - - -
02/08:02pm 8.8 WNW 15 26 1011.1 - 3.6 - - - - - - -
02/08:00pm 8.8 WNW 14 24 1011.1 - 3.6 - - - - - - -
02/07:30pm 8.9 WNW 16 28 1011.0 - 3.6 - - - - - - -
02/07:24pm 9.0 WNW 15 28 1011.0 - 3.6 - - - - - - -
02/07:00pm 9.3 WNW 13 19 1010.9 - 3.4 - - - - - - -
02/06:30pm 10.1 WNW 18 28 1010.7 - 3.4 - - - - - - -
02/06:06pm 10.3 W 22 34 1010.5 - 3.4 - - - - - - -
02/06:00pm 10.4 W 20 27 1010.4 - 3.4 - - - - - - -
02/05:30pm 10.1 W 19 30 1010.2 - 3.4 - - - - - - -
02/05:00pm 10.2 W 22 35 1010.1 - 3.4 - - - - - - -
02/04:30pm 10.6 W 22 33 1009.8 - 3.4 - - - - - - -
02/04:18pm 10.7 W 21 33 1009.8 - 3.4 - - - - - - -
02/04:00pm 10.8 W 22 29 1009.8 - 3.4 - - - - - - -
02/03:47pm 10.5 W 20 31 1009.6 - 3.4 - - - - - - -
02/03:30pm 10.4 WSW 21 30 1009.7 - 3.4 - - - - - - -
02/03:05pm 9.6 W 20 39 1009.6 - 3.4 - - - - - - -
02/03:00pm 10.1 W 20 29 1009.6 - 3.2 Recent precip. - - - - - -
02/02:30pm 9.6 W 22 31 1009.4 - 3.2 - - - - - - -
02/02:11pm 10.4 W 16 33 1009.2 - 2.4 - - - - - - -
02/02:00pm 10.6 WNW 15 23 1008.9 - 2.4 - - - - - - -
02/01:31pm 10.4 W 19 29 1009.1 - 2.2 - - - - - - -
02/01:30pm 10.3 W 20 29 1009.1 - 2.2 - - - - - - -
02/01:00pm 9.6 W 19 30 1009.5 - 1.8 - - - - - - -
02/12:45pm 10.4 WNW 20 37 1009.8 - 1.2 - - - - - - -
02/12:32pm 11.8 WNW 16 26 1009.2 - 0.0 - - - - - - -
02/12:30pm 12.2 WNW 16 26 1009.2 - 0.0 - - - - - - -
02/12:00pm 12.5 NW 15 26 1009.4 - 0.0 - - - - - - -
02/11:30am 11.8 NW 15 26 1010.1 - 0.0 - - - - - - -
02/11:13am 11.7 NW 15 25 1010.1 - 0.0 - - - - - - -
02/11:00am 11.5 NW 13 23 1010.2 - 0.0 - - - - - - -
02/10:39am 10.8 NW 15 26 1010.5 - 0.0 - - - - - - -
02/10:30am 11.2 NW 13 23 1010.4 - 0.0 - - - - - - -
02/10:00am 10.2 NW 13 21 1010.6 - 0.0 - - - - - - -
02/09:30am 9.2 NNW 14 20 1011.0 - 0.0 - - - - - - -
02/09:00am 8.1 NNW 13 18 1011.1 - 0.0 - - - - - - -
02/08:30am 7.2 NNW 11 15 1011.2 - 0.0 - - - - - - -
02/08:00am 6.7 NNW 10 14 1011.5 - 0.0 - - - - - - -
02/07:30am 6.4 NNW 9 14 1011.4 - 0.0 - - - - - - -
02/07:00am 6.5 NNW 10 14 1011.5 - 0.0 - - - - - - -
02/06:30am 6.3 NNW 10 16 1011.5 - 0.0 - - - - - - -
02/06:00am 6.3 NNW 8 14 1011.7 - 0.0 - - - - - - -
02/05:30am 6.8 NNW 8 13 1012.0 - 0.0 - - - - - - -
02/05:00am 6.3 NNW 10 14 1012.3 - 0.0 - - - - - - -
02/04:30am 6.5 NNW 8 13 1012.4 - 0.0 - - - - - - -
02/04:00am 6.7 NNW 8 12 1012.6 - 0.0 - - - - - - -
02/03:30am 7.3 NW 7 13 1013.1 - 0.0 - - - - - - -
02/03:00am 7.0 NW 7 10 1013.4 - 0.0 - - - - - - -
02/02:30am 7.1 NNW 8 15 1013.5 - 0.0 - - - - - - -
02/02:00am 6.9 NNW 7 12 1013.9 - 0.0 - - - - - - -
02/01:30am 6.8 NNW 7 10 1014.0 - 0.0 - - - - - - -
02/01:00am 6.8 NNW 6 9 1014.3 - 0.0 - - - - - - -
02/12:30am 6.8 NNW 6 10 1014.6 - 0.0 - - - - - - -
02/12:00am 6.7 NNW 7 11 1014.9 - 0.0 - - - - - - -
 
Date/Time
EST
Temp

°C
Wind Pressure Rain
since 9am
mm
Weather Cloud Vis
km
Sea
Height
m
Swell
Dir
 
Speed
knots
Gust
knots
hPa Trend Height
m
Period
s
Dir
01/11:30pm 6.2 NNW 6 8 1015.1 - 0.0 - - - - - - -
01/11:00pm 6.2 NNW 6 10 1015.3 - 0.0 - - - - - - -
01/10:30pm 6.2 NNW 4 6 1015.6 - 0.0 - - - - - - -
01/10:00pm 6.6 N 5 8 1015.4 - 0.0 - - - - - - -
01/09:30pm 7.0 NNW 5 9 1015.4 - 0.0 - - - - - - -
01/09:00pm 7.2 NW 4 8 1015.6 - 0.0 - - - - - - -
01/08:30pm 7.8 NNW 6 9 1015.5 - 0.0 - - - - - - -
01/08:00pm 8.0 NW 6 9 1015.6 - 0.0 - - - - - - -
01/07:30pm 7.6 NNW 6 8 1015.4 - 0.0 - - - - - - -
01/07:00pm 7.7 NNW 5 7 1015.2 - 0.0 - - - - - - -
01/06:30pm 7.9 NW 4 8 1015.3 - 0.0 - - - - - - -
01/06:00pm 8.4 NW 4 6 1015.2 - 0.0 - - - - - - -
01/05:30pm 8.9 NW 5 9 1015.0 - 0.0 - - - - - - -
01/05:00pm 9.6 WNW 9 13 1014.8 - 0.0 - - - - - - -
01/04:30pm 10.0 WNW 5 8 1014.6 - 0.0 - - - - - - -
01/04:00pm 10.4 W 12 19 1014.7 - 0.0 - - - - - - -
01/03:30pm 10.9 WSW 11 13 1014.1 - 0.0 - - - - - - -
01/03:00pm 11.5 W 9 14 1013.9 - 0.0 - - - - - - -
01/02:30pm 11.1 WSW 12 18 1014.2 - 0.0 - - - - - - -
01/02:00pm 11.9 WSW 14 19 1014.2 - 0.0 - - - - - - -
01/01:30pm 11.7 WSW 14 18 1014.2 - 0.0 - - - - - - -
01/01:00pm 11.4 W 13 17 1014.6 - 0.0 - - - - - - -
01/12:30pm 11.5 WSW 12 16 1014.8 - 0.0 - - - - - - -
01/12:00pm 11.9 WSW 10 14 1014.7 - 0.0 - - - - - - -
01/11:30am 11.3 WSW 12 15 1014.8 - 0.0 - - - - - - -
01/11:00am 11.0 WSW 14 21 1014.8 - 0.0 - - - - - - -
01/10:30am 10.8 WSW 14 20 1014.5 - 0.0 - - - - - - -
01/10:00am 10.5 WSW 15 21 1014.3 - 0.0 - - - - - - -
01/09:30am 10.2 WSW 15 20 1014.1 - 0.0 - - - - - - -
01/09:00am 10.1 SW 16 21 1013.4 - 2.4 - - - - - - -
01/08:30am 10.4 SW 17 22 1012.8 - 2.4 - - - - - - -
01/08:00am 10.4 SW 17 23 1012.2 - 2.4 - - - - - - -
01/07:30am 10.3 WSW 17 23 1011.6 - 2.4 - - - - - - -
01/07:00am 10.0 WSW 17 22 1011.1 - 2.4 - - - - - - -
01/06:30am 9.3 WSW 14 20 1010.3 - 2.4 - - - - - - -
01/06:00am 9.2 SW 20 27 1010.2 - 2.2 Rain - - - - - -
01/05:30am 9.5 WSW 21 26 1009.7 - 1.2 - - - - - - -

Other Formats:

Comma delimited format used in spreadsheet applications
http://www.bom.gov.au/fwo/IDV60701/IDV60701.94830.axf

JavaScript Object Notation format (JSON) in row-major order
http://www.bom.gov.au/fwo/IDV60701/IDV60701.94830.json